Friday, January 19, 2018, 2:31 AM EST
Back to Local

KNEL, Lakehurst Naval Air Station

Location: Lakehurst, NJ, United States Lat: 40.033
Local Time: 2:31 AM EST ( 7:31 GMT) Lon: -74.317
Time Zone: US/Eastern Elev: 101 ft

Show me the last for .
Show Coded

Time T Td Feel RH Dir Speed Gust Alt SLP Vis Weather Sky Remarks
2018-01-19 02:00 15 12 - 87 - Calm - 30.04 30.04 9 CLR None
2018-01-19 01:00 16 12 - 84 - Calm - 30.04 30.04 10 CLR 6-hr Min Temp (1am): 16.0°F
6-hr Max Temp (1am): 26.1°F
2018-01-19 00:00 16 12 - 84 - Calm - 30.07 30.06 10 CLR 24-hr Min Temp (12am): 16.0°F
24-hr Max Temp (12am): 16.0°F
2018-01-18 23:00 18 14 13 84 290° 3 - 30.08 30.08 10 CLR None
2018-01-18 22:00 20 13 - 73 - Calm - 30.09 30.09 10 CLR None
2018-01-18 21:00 24 13 20 61 290° 3 - 30.07 30.07 10 CLR None
2018-01-18 20:00 24 13 18 61 280° 5 - 30.06 30.06 10 CLR None
2018-01-18 19:00 26 12 19 54 280° 6 - 30.04 30.04 10 CLR 6-hr Min Temp (7pm): 26.1°F
6-hr Max Temp (7pm): 33.1°F
2018-01-18 18:00 28 12 22 50 300° 6 - 30.03 30.03 10 CLR None
2018-01-18 17:00 28 12 21 50 300° 7 - 29.98 29.98 10 CLR None
2018-01-18 16:00 31 10 18 41 300° 12 22 29.96 29.95 10 CLR None
2018-01-18 15:00 32 10 18 39 300° 17 26 29.94 29.94 10 CLR None
2018-01-18 14:00 32 11 23 40 300° 13 - 29.94 29.94 10 CLR None
2018-01-18 13:00 31 10 17 41 310° 13 26 29.94 29.94 10 CLR 6-hr Min Temp (1pm): 16.0°F
6-hr Max Temp (1pm): 30.9°F
2018-01-18 12:00 30 9 16 40 290° 18 25 29.99 29.98 10 CLR None
2018-01-18 11:00 28 10 14 46 290° 16 24 30.04 30.03 10 CLR None
2018-01-18 10:00 25 9 16 49 290° 9 - 30.08 30.07 10 CLR None
2018-01-18 09:00 23 9 14 54 310° 8 - 30.09 30.09 10 CLR None
2018-01-18 08:00 19 9 4 64 300° 8 16 30.05 30.05 10 CLR None
2018-01-18 07:00 16 9 4 73 310° 9 - 30.02 30.02 10 CLR 6-hr Min Temp (7am): 15.1°F
6-hr Max Temp (7am): 19.0°F
2018-01-18 06:00 16 9 4 73 290° 9 - 30.14 30.14 10 CLR None
2018-01-18 05:55 16 9 5 72 280° 8 - 30.16 - 10 CLR None
2018-01-18 05:00 16 9 5 73 290° 8 - 30.02 30.01 10 CLR None
2018-01-18 04:00 17 9 6 69 320° 9 - 30.11 30.11 10 CLR Pressure rising rapidly
2018-01-18 03:00 18 10 8 70 320° 8 - 30.05 30.05 10 CLR None

Support USWX by starting your Amazon purchase here.